Terminal Aerodrome Forecast
Issued by NWS Portland, OR

Home | Current Version | Previous Version | Text Only | Print | Product List | Glossary On
Versions: 1 2 3 4 5 6 7 8 9 10 11 12 13 14 15 16 17 18 19 20 21 22 23 24 25 26 27 28 29 30 31 32
000
FTUS46 KPQR 190529
TAFHIO
TAF
KHIO 190529Z 1906/2006 19008KT P6SM -SHRA SCT030 BKN050 BKN080
     FM191400 17008KT 6SM -RA OVC035
     FM191800 18013G20KT 4SM -RA OVC030
     FM200000 19012KT P6SM -RA OVC025=

USA.gov is the U.S. government's official web portal to all federal, state and local government web resources and services.